Terminal Aerodrome Forecast
Issued by NWS

Home | Current Version | Previous Version | Text Only | Print | Product List | Glossary On
Versions: 1 2 3 4 5 6 7 8 9 10 11 12 13 14 15 16
000
FTUS43 KUNR 211100
TAFGCC
TAF
KGCC 211120Z 2112/2212 25005KT P6SM SCT090
     FM211700 19007KT P6SM SCT250
     FM212100 23008KT P6SM SCT080 BKN250
     FM212300 32009KT P6SM SCT060 OVC100
     FM220600 34006KT P6SM OVC011=

USA.gov is the U.S. government's official web portal to all federal, state and local government web resources and services.